Time;durP1;ratioP1;P1;durP2;ratioP2;P2;SDS_P1;SDS_P2;PMS_P1;PMS_P2;Temp;Humidity;BMP_temperature;BMP_pressure;BME280_temperature;BME280_humidity;BME280_pressure;Samples;Min_cycle;Max_cycle;Signal;HPM_P1;HPM_P2
2020/12/18 00:02:11;;;;;;;24.52;15.45;;;1.70;97.60;;;;;;5068198;28;20403;-73
2020/12/18 00:04:42;;;;;;;28.83;15.52;;;1.70;97.60;;;;;;5074398;28;20410;-72
2020/12/18 00:07:15;;;;;;;28.87;13.57;;;1.70;97.70;;;;;;5090478;28;20401;-72
2020/12/18 00:09:46;;;;;;;23.27;14.27;;;1.90;97.30;;;;;;5069884;28;20483;-72
2020/12/18 00:12:12;;;;;;;23.58;12.93;;;1.80;97.00;;;;;;5073379;28;20511;-72
2020/12/18 00:14:39;;;;;;;20.48;13.30;;;1.80;97.00;;;;;;5087496;28;20418;-73
2020/12/18 00:17:08;;;;;;;20.52;13.52;;;1.80;97.00;;;;;;5073343;28;20397;-72
2020/12/18 00:19:37;;;;;;;18.13;12.88;;;1.70;97.20;;;;;;5069612;28;20412;-72
2020/12/18 00:22:03;;;;;;;18.77;12.40;;;1.60;97.40;;;;;;5073532;28;20418;-72
2020/12/18 00:24:30;;;;;;;17.08;11.95;;;1.70;97.50;;;;;;5069129;28;20497;-72
2020/12/18 00:26:56;;;;;;;17.02;11.57;;;1.70;97.40;;;;;;5072981;28;20963;-72
2020/12/18 00:29:24;;;;;;;17.95;11.32;;;1.70;97.20;;;;;;5069419;28;20437;-72
2020/12/18 00:31:55;;;;;;;15.60;11.75;;;1.70;97.10;;;;;;5072819;28;20422;-72
2020/12/18 00:34:24;;;;;;;15.52;11.05;;;1.70;97.10;;;;;;5068406;28;20414;-72
2020/12/18 00:36:55;;;;;;;16.73;11.82;;;1.70;97.10;;;;;;5072474;28;20449;-72
2020/12/18 00:39:22;;;;;;;17.40;11.13;;;1.70;97.10;;;;;;5087639;28;20483;-72
2020/12/18 00:41:57;;;;;;;15.35;11.20;;;1.80;97.20;;;;;;5072759;28;20438;-72
2020/12/18 00:44:24;;;;;;;17.55;11.73;;;1.80;96.60;;;;;;5072818;28;20777;-73
2020/12/18 00:46:55;;;;;;;17.25;11.30;;;1.70;96.90;;;;;;5069297;28;20406;-72
2020/12/18 00:49:24;;;;;;;18.20;12.55;;;1.70;97.00;;;;;;5072855;28;20450;-72
2020/12/18 00:51:53;;;;;;;17.08;11.55;;;1.70;97.10;;;;;;5086525;28;20511;-73
2020/12/18 00:54:24;;;;;;;17.63;12.10;;;1.70;97.20;;;;;;5073322;28;20718;-72
2020/12/18 00:56:50;;;;;;;15.70;11.02;;;1.80;97.30;;;;;;5069029;28;20409;-72
2020/12/18 00:59:16;;;;;;;18.73;11.82;;;1.90;96.10;;;;;;5066437;28;20871;-72
2020/12/18 01:01:46;;;;;;;16.23;10.90;;;1.80;96.60;;;;;;5067967;28;20430;-72
2020/12/18 01:04:15;;;;;;;16.95;11.30;;;1.90;96.50;;;;;;5069465;28;20864;-72
2020/12/18 01:06:41;;;;;;;16.13;10.90;;;1.80;96.70;;;;;;5069180;28;20504;-72
2020/12/18 01:09:08;;;;;;;15.07;10.70;;;1.70;96.70;;;;;;5073207;28;20397;-72
2020/12/18 01:11:37;;;;;;;16.02;10.32;;;1.70;96.90;;;;;;5069254;28;20426;-72
2020/12/18 01:14:04;;;;;;;17.88;10.82;;;1.60;96.80;;;;;;5090343;28;20503;-72
2020/12/18 01:16:30;;;;;;;15.85;10.82;;;1.70;97.00;;;;;;5069168;28;20878;-72
2020/12/18 01:18:56;;;;;;;19.45;11.07;;;1.70;96.60;;;;;;5092796;28;20409;-72
2020/12/18 01:21:25;;;;;;;20.90;11.32;;;1.80;96.40;;;;;;5077019;28;20467;-72
2020/12/18 01:23:52;;;;;;;17.45;10.75;;;1.80;96.30;;;;;;5091246;28;20449;-73
2020/12/18 01:26:20;;;;;;;17.45;11.93;;;1.80;96.30;;;;;;5096493;28;20461;-72
2020/12/18 01:28:51;;;;;;;18.63;12.10;;;1.70;96.60;;;;;;5094604;28;20887;-73
2020/12/18 01:31:20;;;;;;;19.35;13.13;;;1.60;96.80;;;;;;5076100;28;20422;-73
2020/12/18 01:33:46;;;;;;;21.42;13.48;;;1.60;97.10;;;;;;5090302;28;20405;-72
2020/12/18 01:36:12;;;;;;;23.13;13.48;;;1.60;97.40;;;;;;5075751;28;20438;-73
2020/12/18 01:38:39;;;;;;;23.38;14.55;;;1.60;97.40;;;;;;5090454;28;20471;-72
2020/12/18 01:41:10;;;;;;;20.90;14.20;;;1.60;97.40;;;;;;5076400;28;20467;-72
2020/12/18 01:43:37;;;;;;;21.55;13.70;;;1.60;97.30;;;;;;5090196;28;20427;-72
2020/12/18 01:46:09;;;;;;;14.77;10.32;;;1.50;97.40;;;;;;5076004;28;20405;-72
2020/12/18 01:48:38;;;;;;;13.23;10.10;;;1.60;96.90;;;;;;5090624;28;20491;-72
2020/12/18 01:51:08;;;;;;;14.23;10.43;;;1.50;97.00;;;;;;5075885;28;20886;-72
2020/12/18 01:53:35;;;;;;;15.52;11.02;;;1.50;97.00;;;;;;5090289;28;20467;-72
2020/12/18 01:56:08;;;;;;;15.98;11.45;;;1.50;97.20;;;;;;5076112;28;20413;-72
2020/12/18 01:58:38;;;;;;;14.82;9.10;;;1.50;97.30;;;;;;5075533;28;20808;-72
2020/12/18 02:01:08;;;;;;;14.30;8.63;;;1.70;97.20;;;;;;5089522;28;20402;-73
2020/12/18 02:03:38;;;;;;;25.33;10.57;;;1.80;96.40;;;;;;5075716;28;20843;-72
2020/12/18 02:06:09;;;;;;;22.23;11.15;;;1.70;96.50;;;;;;5089409;28;20467;-72
2020/12/18 02:08:39;;;;;;;14.30;10.88;;;1.60;96.70;;;;;;5075440;28;20402;-72
2020/12/18 02:11:05;;;;;;;20.35;11.32;;;1.50;97.10;;;;;;5071826;28;20436;-72
2020/12/18 02:13:32;;;;;;;14.88;11.18;;;1.50;97.30;;;;;;5075127;28;20751;-72
2020/12/18 02:16:01;;;;;;;15.88;11.15;;;1.50;97.50;;;;;;5071719;28;21083;-72
2020/12/18 02:18:30;;;;;;;40.87;11.83;;;1.50;97.60;;;;;;5092738;28;20823;-72
2020/12/18 02:20:56;;;;;;;24.70;12.93;;;1.50;97.70;;;;;;5071735;28;20929;-72
2020/12/18 02:23:22;;;;;;;18.38;12.75;;;1.40;97.70;;;;;;5075483;28;20445;-72
2020/12/18 02:26:13;;;;;;;20.20;12.97;;;1.50;97.80;;;;;;5072115;28;20410;-73
2020/12/18 02:28:40;;;;;;;19.98;13.38;;;1.50;97.80;;;;;;5065827;28;20418;-72
2020/12/18 02:31:08;;;;;;;19.38;12.90;;;1.50;97.90;;;;;;5071019;28;20896;-73
2020/12/18 02:33:35;;;;;;;20.13;12.82;;;1.50;97.90;;;;;;5075501;28;20714;-72
2020/12/18 02:36:03;;;;;;;16.33;12.43;;;1.60;97.90;;;;;;5089124;28;20475;-73
2020/12/18 02:38:30;;;;;;;18.92;12.80;;;1.60;97.80;;;;;;5092751;28;20475;-73
2020/12/18 02:40:57;;;;;;;18.45;13.00;;;1.60;97.80;;;;;;5092744;28;20414;-73
2020/12/18 02:43:26;;;;;;;46.67;13.57;;;1.60;97.80;;;;;;5071227;28;20769;-73
2020/12/18 02:45:55;;;;;;;32.03;12.43;;;1.70;97.90;;;;;;5092727;28;20459;-73
2020/12/18 02:48:21;;;;;;;20.15;11.32;;;1.80;97.40;;;;;;5089121;28;20458;-73
2020/12/18 02:50:49;;;;;;;26.25;11.07;;;1.80;97.30;;;;;;5092591;28;20771;-73
2020/12/18 02:53:19;;;;;;;23.40;11.10;;;1.90;97.30;;;;;;5071579;28;20418;-73
2020/12/18 02:55:46;;;;;;;34.42;11.00;;;1.90;96.80;;;;;;5092150;28;20398;-73
2020/12/18 02:58:13;;;;;;;20.90;12.27;;;1.90;97.10;;;;;;5070810;28;20750;-73
2020/12/18 03:00:41;;;;;;;16.92;12.20;;;1.70;97.10;;;;;;5074085;28;20414;-73
2020/12/18 03:03:07;;;;;;;23.17;13.10;;;1.70;97.40;;;;;;5088976;28;20402;-73
2020/12/18 03:05:35;;;;;;;18.35;12.82;;;1.60;97.60;;;;;;5091755;28;20842;-72
2020/12/18 03:08:02;;;;;;;28.17;13.80;;;1.60;97.60;;;;;;5071378;28;20550;-72
2020/12/18 03:10:28;;;;;;;19.30;14.32;;;1.60;97.80;;;;;;5074559;28;20410;-72
2020/12/18 03:12:55;;;;;;;18.52;13.40;;;1.60;98.00;;;;;;5072426;28;20483;-73
2020/12/18 03:15:21;;;;;;;18.10;13.50;;;1.70;98.10;;;;;;5073377;28;20410;-73
2020/12/18 03:17:48;;;;;;;17.17;12.70;;;1.60;98.20;;;;;;5074571;28;20463;-73
2020/12/18 03:20:14;;;;;;;17.05;12.60;;;1.60;98.10;;;;;;5088397;28;20927;-73
2020/12/18 03:22:45;;;;;;;17.52;13.65;;;1.70;98.20;;;;;;5091944;28;20414;-72
2020/12/18 03:25:15;;;;;;;15.77;12.23;;;1.70;98.10;;;;;;5088167;28;20429;-73
2020/12/18 03:27:44;;;;;;;14.63;11.63;;;1.70;98.10;;;;;;5074093;28;20887;-72
2020/12/18 03:30:10;;;;;;;13.50;10.80;;;1.70;98.10;;;;;;5088030;28;20425;-73
2020/12/18 03:32:37;;;;;;;12.90;10.63;;;1.70;98.00;;;;;;5073939;28;20418;-73
2020/12/18 03:35:05;;;;;;;20.50;10.13;;;1.70;97.90;;;;;;5087844;28;20475;-73
2020/12/18 03:37:33;;;;;;;14.40;10.02;;;1.70;97.80;;;;;;5091316;28;20850;-73
2020/12/18 03:40:00;;;;;;;13.68;10.05;;;1.70;97.80;;;;;;5088057;28;20491;-72
2020/12/18 03:42:26;;;;;;;13.52;11.13;;;1.70;97.80;;;;;;5073635;28;20414;-73
2020/12/18 03:44:52;;;;;;;16.10;11.48;;;1.70;97.90;;;;;;5070297;28;20452;-73
2020/12/18 03:47:19;;;;;;;13.93;11.20;;;1.70;97.90;;;;;;5073956;28;20406;-72
2020/12/18 03:49:45;;;;;;;15.77;10.77;;;1.70;98.00;;;;;;5091069;28;20406;-72
2020/12/18 03:52:12;;;;;;;14.68;11.52;;;1.70;98.20;;;;;;5069956;28;20462;-73
2020/12/18 03:54:38;;;;;;;13.23;11.45;;;1.70;98.00;;;;;;5091730;28;20410;-72
2020/12/18 03:57:04;;;;;;;14.33;11.03;;;1.70;98.00;;;;;;5074025;28;20403;-72
2020/12/18 03:59:31;;;;;;;18.10;11.57;;;1.70;97.80;;;;;;5070022;28;20412;-73
2020/12/18 04:01:57;;;;;;;17.23;11.63;;;1.70;97.80;;;;;;5079155;28;20414;-72
2020/12/18 04:04:23;;;;;;;14.73;10.05;;;1.80;97.70;;;;;;5090797;28;20430;-73
2020/12/18 04:06:50;;;;;;;13.80;10.30;;;1.70;97.50;;;;;;5087643;28;20479;-73
2020/12/18 04:09:22;;;;;;;14.70;11.05;;;1.60;97.40;;;;;;5090846;28;20406;-72
2020/12/18 04:11:49;;;;;;;14.43;10.15;;;1.60;97.50;;;;;;5069461;28;20430;-73
2020/12/18 04:14:15;;;;;;;10.43;8.77;;;1.60;97.60;;;;;;5073230;28;20966;-73
2020/12/18 04:16:42;;;;;;;9.93;7.97;;;1.60;97.30;;;;;;5068231;28;21265;-73
2020/12/18 04:19:08;;;;;;;10.93;7.50;;;1.60;97.10;;;;;;5070793;28;20464;-72
2020/12/18 04:21:35;;;;;;;9.85;7.68;;;1.50;96.90;;;;;;5053267;28;20461;-72
2020/12/18 04:24:02;;;;;;;9.50;7.50;;;1.50;96.90;;;;;;5050466;28;20469;-72
2020/12/18 04:26:31;;;;;;;9.85;7.13;;;1.50;97.00;;;;;;5053074;28;20407;-72
2020/12/18 04:29:00;;;;;;;8.30;7.03;;;1.50;97.00;;;;;;5082861;28;20402;-72
2020/12/18 04:31:26;;;;;;;9.00;7.30;;;1.50;97.00;;;;;;5090422;28;20524;-72
2020/12/18 04:33:55;;;;;;;10.15;7.65;;;1.40;96.90;;;;;;5087432;28;20402;-73
2020/12/18 04:36:21;;;;;;;10.65;7.97;;;1.40;96.90;;;;;;5072583;28;20446;-73
2020/12/18 04:38:48;;;;;;;9.07;7.57;;;1.40;96.90;;;;;;5087062;28;20402;-72
2020/12/18 04:41:17;;;;;;;13.20;8.23;;;1.40;96.90;;;;;;5090357;28;20449;-72
2020/12/18 04:43:46;;;;;;;9.23;7.68;;;1.40;97.00;;;;;;5087313;28;20550;-72
2020/12/18 04:46:18;;;;;;;9.55;8.15;;;1.30;96.90;;;;;;5072926;28;20773;-73
2020/12/18 04:48:49;;;;;;;10.02;7.80;;;1.30;97.00;;;;;;5066848;28;20439;-72
2020/12/18 04:51:25;;;;;;;10.05;7.95;;;1.30;96.90;;;;;;5069219;28;20448;-73
2020/12/18 04:53:55;;;;;;;14.70;8.70;;;1.30;96.80;;;;;;5071083;28;20400;-72
2020/12/18 04:56:26;;;;;;;10.73;8.68;;;1.30;96.90;;;;;;5094587;28;20511;-73
2020/12/18 04:58:57;;;;;;;12.38;8.65;;;1.30;97.00;;;;;;5072950;28;20422;-72
2020/12/18 05:01:25;;;;;;;12.23;8.98;;;1.30;96.80;;;;;;5073580;28;20798;-72
2020/12/18 05:03:52;;;;;;;12.15;9.13;;;1.30;96.70;;;;;;5074191;28;20416;-72
2020/12/18 05:06:19;;;;;;;12.50;9.60;;;1.20;96.80;;;;;;5071269;28;20467;-73
2020/12/18 05:08:48;;;;;;;13.23;9.33;;;1.20;96.90;;;;;;5093563;28;20409;-72
2020/12/18 05:11:25;;;;;;;13.95;10.13;;;1.20;96.90;;;;;;5090705;28;20406;-72
2020/12/18 05:13:54;;;;;;;13.95;10.05;;;1.20;97.10;;;;;;5094841;28;20421;-72
2020/12/18 05:16:22;;;;;;;14.15;9.98;;;1.20;97.20;;;;;;5060284;28;20415;-73
2020/12/18 05:18:52;;;;;;;15.20;10.55;;;1.20;97.30;;;;;;5056405;28;20438;-72
2020/12/18 05:21:21;;;;;;;15.25;10.25;;;1.20;97.40;;;;;;5063945;28;20475;-73
2020/12/18 05:24:00;;;;;;;15.38;10.48;;;1.20;97.30;;;;;;5093561;28;20420;-72
2020/12/18 05:26:28;;;;;;;14.77;10.88;;;1.30;97.30;;;;;;5073404;28;20403;-72
2020/12/18 05:29:11;;;;;;;15.95;9.98;;;1.30;97.40;;;;;;5076427;28;20905;-73
2020/12/18 05:31:37;;;;;;;16.75;9.88;;;1.40;97.10;;;;;;5073049;28;20592;-72
2020/12/18 05:34:04;;;;;;;15.32;10.25;;;1.50;96.20;;;;;;5076315;28;20437;-73
2020/12/18 05:36:32;;;;;;;15.18;10.70;;;1.50;96.40;;;;;;5071523;28;20413;-73
2020/12/18 05:38:58;;;;;;;15.20;10.75;;;1.30;96.60;;;;;;5094059;28;20487;-72
2020/12/18 05:41:25;;;;;;;14.23;9.55;;;1.20;97.00;;;;;;5072721;28;20402;-73
2020/12/18 05:43:52;;;;;;;12.90;9.70;;;1.40;97.00;;;;;;5092451;28;20927;-73
2020/12/18 05:46:27;;;;;;;13.13;8.80;;;1.40;96.40;;;;;;5093710;28;20414;-73
2020/12/18 05:49:02;;;;;;;8.10;6.75;;;1.50;96.70;;;;;;5069239;28;20477;-73
2020/12/18 05:51:30;;;;;;;9.57;7.20;;;1.60;96.10;;;;;;5055827;28;20473;-73
2020/12/18 05:54:18;;;;;;;10.48;8.13;;;1.60;95.80;;;;;;5089095;28;20433;-73
2020/12/18 05:56:51;;;;;;;12.48;9.02;;;1.40;96.30;;;;;;5073270;28;20827;-72
2020/12/18 05:59:21;;;;;;;18.10;8.68;;;1.40;96.90;;;;;;5089247;28;20406;-73
2020/12/18 06:01:54;;;;;;;11.45;8.65;;;1.50;96.80;;;;;;5076148;28;20517;-73
2020/12/18 06:04:23;;;;;;;11.03;8.67;;;1.40;96.60;;;;;;5085169;28;20418;-72
2020/12/18 06:06:55;;;;;;;15.10;9.63;;;1.40;96.70;;;;;;5091468;28;20762;-73
2020/12/18 06:09:26;;;;;;;12.90;9.57;;;1.30;96.90;;;;;;5068822;28;20506;-73
2020/12/18 06:11:52;;;;;;;11.45;9.32;;;1.20;97.10;;;;;;5071851;28;20427;-73
2020/12/18 06:14:21;;;;;;;12.60;9.32;;;1.10;97.10;;;;;;5071861;28;20490;-72
2020/12/18 06:16:49;;;;;;;11.45;8.38;;;1.10;97.20;;;;;;5075353;28;20437;-72
2020/12/18 06:23:05;;;;;;;11.90;9.00;;;1.20;97.30;;;;;;5106293;28;20429;-83
2020/12/18 06:25:32;;;;;;;14.27;9.85;;;1.30;96.80;;;;;;5079047;28;20402;-85
2020/12/18 06:28:01;;;;;;;13.23;10.45;;;1.30;96.90;;;;;;5077338;28;20394;-84
2020/12/18 06:30:29;;;;;;;14.13;10.35;;;1.20;96.60;;;;;;5075967;28;20749;-84
2020/12/18 06:32:56;;;;;;;15.38;11.10;;;1.20;97.00;;;;;;5077209;28;20467;-84
2020/12/18 06:35:28;;;;;;;14.57;10.98;;;1.20;96.90;;;;;;5087871;28;20492;-84
2020/12/18 06:37:56;;;;;;;13.48;9.95;;;1.20;97.10;;;;;;5097447;28;20756;-84
2020/12/18 06:40:30;;;;;;;17.52;10.20;;;1.20;96.90;;;;;;5094067;28;20775;-84
2020/12/18 06:42:58;;;;;;;11.57;8.95;;;1.10;96.80;;;;;;5097018;28;20425;-84
2020/12/18 06:45:26;;;;;;;13.85;9.77;;;1.20;96.80;;;;;;5097674;28;20434;-84
2020/12/18 06:47:52;;;;;;;12.68;9.30;;;1.20;96.90;;;;;;5096646;28;20807;-84
2020/12/18 06:50:21;;;;;;;13.05;10.15;;;1.30;96.60;;;;;;5074666;28;20434;-84
2020/12/18 06:52:54;;;;;;;16.40;10.60;;;1.30;96.50;;;;;;5088155;28;20416;-84
2020/12/18 06:55:26;;;;;;;21.00;11.65;;;1.20;96.80;;;;;;5118178;28;20412;-84
2020/12/18 06:58:20;;;;;;;19.63;10.77;;;1.20;97.20;;;;;;5095993;28;20413;-84
2020/12/18 07:00:50;;;;;;;17.80;12.75;;;1.20;96.90;;;;;;5091431;28;20416;-84
2020/12/18 07:03:35;;;;;;;25.27;12.67;;;1.10;97.10;;;;;;5076545;28;20421;-84
2020/12/18 07:06:09;;;;;;;39.45;12.27;;;1.30;97.10;;;;;;5096009;28;20568;-83
2020/12/18 07:08:41;;;;;;;31.63;12.40;;;1.30;97.00;;;;;;5096579;28;20412;-85
2020/12/18 07:11:14;;;;;;;27.13;12.98;;;1.40;96.70;;;;;;5095742;28;20882;-84
2020/12/18 07:13:46;;;;;;;17.45;11.20;;;1.20;96.80;;;;;;5103091;28;20785;-83
2020/12/18 07:16:13;;;;;;;20.48;12.98;;;1.30;96.90;;;;;;5098870;28;20408;-82
2020/12/18 07:18:43;;;;;;;17.55;12.60;;;1.20;97.00;;;;;;5103785;28;20763;-82
2020/12/18 07:21:15;;;;;;;19.45;11.10;;;1.20;97.30;;;;;;5095160;28;20444;-83
2020/12/18 07:23:52;;;;;;;18.27;11.45;;;1.20;97.50;;;;;;5086684;28;20416;-83
2020/12/18 07:26:20;;;;;;;15.50;11.40;;;1.20;97.20;;;;;;5118394;28;20412;-83
2020/12/18 07:28:48;;;;;;;16.10;11.47;;;1.10;97.30;;;;;;5080283;28;20414;-82
2020/12/18 07:31:27;;;;;;;18.45;12.63;;;1.20;97.40;;;;;;5076006;28;20470;-83
2020/12/18 07:33:56;;;;;;;16.45;11.68;;;1.20;97.50;;;;;;5075008;28;20406;-83
2020/12/18 07:36:27;;;;;;;16.67;11.93;;;1.20;97.50;;;;;;5081735;28;20467;-85
2020/12/18 07:39:00;;;;;;;16.55;11.32;;;1.20;97.40;;;;;;5092356;28;20428;-84
2020/12/18 07:41:29;;;;;;;19.60;12.52;;;1.20;97.40;;;;;;5095645;28;20392;-85
2020/12/18 07:44:09;;;;;;;21.75;13.00;;;1.20;97.40;;;;;;5111552;28;20464;-83
2020/12/18 07:46:36;;;;;;;21.38;13.65;;;1.20;97.40;;;;;;5099750;28;20400;-83
2020/12/18 07:49:09;;;;;;;19.23;13.88;;;1.30;97.50;;;;;;5092425;28;20401;-83
2020/12/18 07:51:37;;;;;;;21.10;12.70;;;1.30;97.40;;;;;;5081782;28;20410;-82
2020/12/18 07:54:03;;;;;;;19.75;11.98;;;1.30;97.30;;;;;;5095072;28;20410;-82
2020/12/18 07:56:30;;;;;;;18.77;11.93;;;1.30;97.30;;;;;;5098904;28;20489;-83
2020/12/18 07:59:06;;;;;;;16.58;11.35;;;1.30;97.30;;;;;;5109466;28;20444;-82
2020/12/18 08:01:35;;;;;;;11.73;8.77;;;1.30;97.20;;;;;;5113043;28;20432;-82
2020/12/18 08:04:12;;;;;;;11.70;8.93;;;1.30;96.90;;;;;;5113926;28;20509;-84
2020/12/18 08:06:41;;;;;;;10.30;8.10;;;1.30;96.90;;;;;;5095339;28;20902;-85
2020/12/18 08:09:13;;;;;;;9.90;7.90;;;1.30;96.80;;;;;;5113060;28;20477;-85
2020/12/18 08:11:52;;;;;;;9.00;7.28;;;1.30;96.70;;;;;;5075695;28;20944;-83
2020/12/18 08:14:19;;;;;;;9.45;6.65;;;1.40;96.60;;;;;;5077398;28;20487;-83
2020/12/18 08:16:48;;;;;;;9.85;6.85;;;1.30;96.30;;;;;;5090660;28;20449;-84
2020/12/18 08:19:14;;;;;;;7.88;6.78;;;1.30;96.20;;;;;;5094586;28;20396;-84
2020/12/18 08:21:44;;;;;;;8.80;6.75;;;1.30;96.20;;;;;;5092179;28;20423;-84
2020/12/18 08:24:26;;;;;;;10.20;8.07;;;1.30;96.30;;;;;;5096499;28;20450;-83
2020/12/18 08:27:11;;;;;;;11.20;7.70;;;1.30;96.30;;;;;;5088408;28;20557;-83
2020/12/18 08:29:39;;;;;;;12.27;8.95;;;1.30;96.60;;;;;;5095112;28;20476;-85
2020/12/18 08:32:07;;;;;;;8.10;6.80;;;1.30;96.10;;;;;;5098852;28;20434;-83
2020/12/18 08:34:35;;;;;;;11.88;8.98;;;1.30;96.20;;;;;;5077692;28;20418;-82
2020/12/18 08:37:05;;;;;;;7.00;6.17;;;1.40;96.20;;;;;;5080755;28;20417;-84
2020/12/18 08:39:35;;;;;;;7.28;6.05;;;1.40;95.90;;;;;;5094530;28;20424;-83
2020/12/18 08:42:03;;;;;;;6.43;5.63;;;1.40;95.80;;;;;;5103630;28;20840;-84
2020/12/18 08:44:38;;;;;;;7.35;6.03;;;1.40;95.80;;;;;;5078774;28;20414;-83
2020/12/18 08:47:16;;;;;;;9.07;6.80;;;1.40;95.90;;;;;;5076819;28;20412;-84
2020/12/18 08:49:43;;;;;;;8.48;6.53;;;1.50;95.80;;;;;;5094467;28;20473;-83
2020/12/18 08:52:29;;;;;;;8.27;6.45;;;1.40;95.70;;;;;;5105237;28;22669;-83
2020/12/18 08:55:00;;;;;;;12.47;6.70;;;1.50;95.90;;;;;;5096282;28;20425;-82
2020/12/18 08:57:31;;;;;;;12.52;7.30;;;1.50;95.40;;;;;;5073035;28;20879;-81
2020/12/18 09:00:10;;;;;;;10.15;7.68;;;1.50;95.80;;;;;;5082342;28;21048;-81
2020/12/18 09:02:56;;;;;;;10.35;7.70;;;1.50;96.00;;;;;;5089748;28;20475;-80
2020/12/18 09:05:30;;;;;;;9.68;7.72;;;1.40;95.80;;;;;;5077537;28;20844;-80
2020/12/18 09:07:59;;;;;;;10.38;8.00;;;1.50;95.80;;;;;;5072545;28;20402;-81
2020/12/18 09:10:27;;;;;;;12.10;8.68;;;1.40;95.90;;;;;;5074228;28;20402;-81
2020/12/18 09:12:54;;;;;;;10.95;8.05;;;1.50;96.20;;;;;;5073528;28;20986;-81
2020/12/18 09:15:27;;;;;;;10.73;8.27;;;1.50;96.10;;;;;;5076563;28;20455;-81
2020/12/18 09:18:02;;;;;;;11.05;8.18;;;1.60;96.10;;;;;;5073573;28;20409;-81
2020/12/18 09:20:30;;;;;;;11.88;8.63;;;1.60;96.10;;;;;;5089084;28;20878;-81
2020/12/18 09:23:05;;;;;;;12.43;9.23;;;1.60;95.80;;;;;;5093692;28;20949;-81
2020/12/18 09:25:40;;;;;;;13.97;9.57;;;1.60;95.80;;;;;;5080243;28;20394;-81
2020/12/18 09:28:12;;;;;;;13.00;9.15;;;1.50;96.00;;;;;;5073753;28;20937;-81
2020/12/18 09:30:39;;;;;;;11.50;8.20;;;1.60;96.20;;;;;;5076416;28;20497;-80
2020/12/18 09:33:14;;;;;;;13.07;8.68;;;1.80;95.40;;;;;;5073551;28;20433;-82
2020/12/18 09:35:42;;;;;;;12.75;8.88;;;1.80;95.60;;;;;;5074984;28;20431;-81
2020/12/18 09:38:10;;;;;;;13.13;8.80;;;1.70;95.60;;;;;;5081372;28;20397;-84
2020/12/18 09:40:38;;;;;;;12.60;9.20;;;1.70;95.60;;;;;;5074514;28;20418;-81
2020/12/18 09:43:04;;;;;;;11.77;9.00;;;1.70;95.90;;;;;;5076873;28;20457;-82
2020/12/18 09:45:43;;;;;;;13.52;9.10;;;1.80;96.00;;;;;;5104112;28;20400;-82
2020/12/18 09:48:09;;;;;;;14.80;10.02;;;1.80;96.10;;;;;;5114957;28;20453;-82
2020/12/18 09:50:36;;;;;;;12.98;9.60;;;1.90;96.10;;;;;;5085563;28;20448;-81
2020/12/18 09:53:04;;;;;;;13.52;9.82;;;1.90;96.10;;;;;;5076310;28;20398;-82
2020/12/18 09:55:31;;;;;;;12.98;9.50;;;2.00;96.20;;;;;;5095327;28;20469;-81
2020/12/18 09:58:00;;;;;;;13.95;9.85;;;2.10;96.20;;;;;;5096949;28;20401;-82
2020/12/18 10:00:26;;;;;;;13.95;9.25;;;2.10;96.10;;;;;;5081149;28;20455;-82
2020/12/18 10:02:55;;;;;;;14.65;9.80;;;2.10;95.90;;;;;;5074246;28;20474;-82
2020/12/18 10:05:22;;;;;;;14.30;10.40;;;2.10;95.90;;;;;;5080269;28;21189;-82
2020/12/18 10:07:52;;;;;;;14.67;10.73;;;2.20;96.00;;;;;;5089171;28;20400;-82
2020/12/18 10:10:19;;;;;;;15.48;10.68;;;2.20;96.10;;;;;;5095936;28;20400;-82
2020/12/18 10:12:45;;;;;;;17.33;11.00;;;2.20;96.00;;;;;;5082209;28;20815;-82
2020/12/18 10:15:12;;;;;;;15.63;10.40;;;2.20;95.80;;;;;;5080407;28;20420;-82
2020/12/18 10:17:41;;;;;;;12.05;8.90;;;2.20;95.70;;;;;;5082327;28;20412;-82
2020/12/18 10:20:07;;;;;;;14.50;9.38;;;2.30;95.50;;;;;;5114475;28;20408;-82
2020/12/18 10:22:36;;;;;;;12.27;8.77;;;2.30;95.30;;;;;;5094420;28;20428;-82
2020/12/18 10:25:03;;;;;;;10.90;8.00;;;2.30;95.70;;;;;;5100669;28;20739;-81
2020/12/18 10:27:29;;;;;;;10.20;7.78;;;2.30;95.10;;;;;;5082158;28;20448;-81
2020/12/18 10:29:56;;;;;;;10.80;7.75;;;2.30;95.10;;;;;;5088815;28;20425;-81
2020/12/18 10:32:28;;;;;;;8.50;6.70;;;2.40;95.10;;;;;;5094067;28;20884;-81
2020/12/18 10:34:57;;;;;;;9.52;7.07;;;2.40;94.70;;;;;;5098064;28;20412;-81
2020/12/18 10:37:26;;;;;;;9.63;6.70;;;2.50;94.30;;;;;;5096144;28;20881;-81
2020/12/18 10:39:52;;;;;;;9.52;7.38;;;2.50;94.50;;;;;;5077099;28;20410;-82
2020/12/18 10:42:20;;;;;;;10.32;7.70;;;2.40;95.00;;;;;;5093844;28;20514;-82
2020/12/18 10:44:50;;;;;;;10.23;7.25;;;2.40;95.40;;;;;;5110883;28;20426;-81
2020/12/18 10:47:17;;;;;;;10.13;7.68;;;2.40;95.20;;;;;;5114137;28;20441;-82
2020/12/18 10:49:44;;;;;;;10.52;7.97;;;2.40;95.30;;;;;;5100268;28;20413;-82
2020/12/18 10:52:11;;;;;;;12.48;8.40;;;2.50;95.20;;;;;;5111252;28;20389;-81
2020/12/18 10:54:37;;;;;;;10.77;7.90;;;2.40;95.10;;;;;;5115682;28;20412;-83
2020/12/18 10:57:08;;;;;;;12.52;7.95;;;2.50;95.20;;;;;;5096664;28;20436;-82
2020/12/18 10:59:37;;;;;;;12.45;8.35;;;2.60;95.30;;;;;;5108544;28;20408;-82
2020/12/18 11:02:04;;;;;;;14.50;9.60;;;2.60;95.20;;;;;;5113869;28;20392;-82
2020/12/18 11:04:30;;;;;;;14.07;9.68;;;2.60;95.10;;;;;;5062647;28;20467;-82
2020/12/18 11:06:57;;;;;;;13.00;8.82;;;2.60;95.10;;;;;;5096005;28;20472;-82
2020/12/18 11:09:24;;;;;;;11.18;7.50;;;2.70;95.00;;;;;;5113556;28;20408;-82
2020/12/18 11:11:57;;;;;;;10.40;7.97;;;2.70;94.80;;;;;;5074408;28;20450;-82
2020/12/18 11:14:24;;;;;;;10.65;7.95;;;2.60;94.80;;;;;;5079403;28;20485;-82
2020/12/18 11:16:54;;;;;;;10.20;7.63;;;2.60;95.10;;;;;;5073342;28;20414;-82
2020/12/18 11:19:24;;;;;;;10.23;7.70;;;2.60;95.10;;;;;;5075448;28;20398;-82
2020/12/18 11:21:51;;;;;;;12.13;8.50;;;2.60;95.10;;;;;;5087248;28;20477;-82
2020/12/18 11:24:20;;;;;;;11.93;8.55;;;2.50;94.90;;;;;;5099580;28;20427;-83
2020/12/18 11:26:51;;;;;;;13.03;9.23;;;2.50;94.90;;;;;;5086530;28;20396;-83
2020/12/18 11:29:22;;;;;;;13.07;9.38;;;2.60;95.20;;;;;;5110868;28;20405;-83
2020/12/18 11:31:48;;;;;;;11.30;8.48;;;2.60;95.20;;;;;;5084492;28;21008;-83
2020/12/18 11:34:20;;;;;;;11.52;7.93;;;2.60;95.40;;;;;;5096984;28;20398;-83
2020/12/18 11:36:47;;;;;;;12.03;8.57;;;2.70;95.40;;;;;;5092153;28;20936;-82
2020/12/18 11:39:13;;;;;;;13.13;8.88;;;2.80;95.20;;;;;;5074625;28;20457;-82
2020/12/18 11:41:40;;;;;;;14.57;9.55;;;2.90;94.80;;;;;;5093472;28;20460;-81
2020/12/18 11:44:09;;;;;;;13.70;10.07;;;2.80;94.70;;;;;;5099429;28;20844;-81
2020/12/18 11:46:38;;;;;;;14.73;10.43;;;2.70;94.90;;;;;;5094686;28;20408;-82
2020/12/18 11:49:06;;;;;;;15.00;10.40;;;2.70;95.10;;;;;;5073586;28;20409;-82
2020/12/18 11:51:36;;;;;;;18.13;10.50;;;2.80;95.20;;;;;;5077812;28;20405;-82
2020/12/18 11:54:02;;;;;;;17.08;11.02;;;2.90;95.00;;;;;;5095587;28;20409;-83
2020/12/18 11:56:29;;;;;;;18.08;11.55;;;2.90;95.00;;;;;;5074026;28;20527;-82
2020/12/18 11:58:56;;;;;;;23.40;13.57;;;2.90;95.10;;;;;;5100976;28;20839;-82
2020/12/18 12:01:23;;;;;;;25.20;15.27;;;2.90;95.30;;;;;;5074557;28;20406;-82
2020/12/18 12:03:51;;;;;;;19.85;12.98;;;2.90;95.60;;;;;;5103668;28;20537;-82
2020/12/18 12:06:18;;;;;;;21.60;13.13;;;3.00;95.40;;;;;;5095046;28;20458;-82
2020/12/18 12:08:46;;;;;;;22.98;14.27;;;3.00;95.30;;;;;;5102796;28;20510;-82
2020/12/18 12:11:15;;;;;;;26.08;16.02;;;3.00;95.60;;;;;;5074140;28;20386;-82
2020/12/18 12:13:46;;;;;;;23.60;15.70;;;3.10;96.00;;;;;;5076727;28;20399;-82
2020/12/18 12:16:14;;;;;;;25.17;15.60;;;3.10;95.70;;;;;;5087257;28;20462;-82
2020/12/18 12:18:42;;;;;;;28.77;16.60;;;3.20;95.60;;;;;;5092137;28;21111;-82
2020/12/18 12:21:09;;;;;;;27.92;17.27;;;3.20;95.60;;;;;;5093980;28;20420;-82
2020/12/18 12:23:35;;;;;;;26.30;15.85;;;3.20;95.60;;;;;;5099031;28;20492;-82
2020/12/18 12:26:02;;;;;;;21.98;14.65;;;3.20;95.60;;;;;;5074079;28;20414;-83
2020/12/18 12:28:28;;;;;;;24.53;15.43;;;3.30;95.50;;;;;;5092053;28;20467;-82
2020/12/18 12:30:55;;;;;;;25.27;16.00;;;3.30;95.50;;;;;;5072956;28;20411;-83
2020/12/18 12:33:24;;;;;;;26.83;17.50;;;3.30;95.70;;;;;;5095761;28;20406;-82
2020/12/18 12:35:50;;;;;;;25.25;16.55;;;3.40;95.60;;;;;;5072701;28;20445;-82
2020/12/18 12:38:16;;;;;;;25.63;16.77;;;3.30;95.60;;;;;;5073966;28;20451;-83
2020/12/18 12:40:49;;;;;;;27.58;17.52;;;3.40;95.70;;;;;;5079031;28;20467;-82
2020/12/18 12:43:16;;;;;;;30.85;17.67;;;3.40;95.70;;;;;;5077979;28;20425;-82
2020/12/18 12:45:42;;;;;;;30.70;18.55;;;3.40;95.60;;;;;;5072455;28;21122;-82
2020/12/18 12:48:11;;;;;;;28.73;18.38;;;3.40;95.60;;;;;;5092321;28;20394;-82
2020/12/18 12:50:46;;;;;;;28.92;17.30;;;3.40;95.70;;;;;;5078721;28;20453;-82
2020/12/18 12:53:15;;;;;;;28.50;17.95;;;3.40;95.80;;;;;;5096805;28;20410;-82
2020/12/18 12:55:42;;;;;;;26.83;17.13;;;3.40;95.90;;;;;;5072616;28;20464;-83
2020/12/18 12:58:12;;;;;;;25.23;15.98;;;3.40;95.50;;;;;;5074168;28;20414;-82